Time;durP1;ratioP1;P1;durP2;ratioP2;P2;SDS_P1;SDS_P2;PMS_P1;PMS_P2;Temp;Humidity;BMP_temperature;BMP_pressure;BME280_temperature;BME280_humidity;BME280_pressure;Samples;Min_cycle;Max_cycle;Signal;HPM_P1;HPM_P2
2023/10/16 00:00:40;;;;;;;5.38;1.40;;;6.80;99.90;;;;;;5050569;28;20502;-80
2023/10/16 00:03:08;;;;;;;3.55;1.05;;;6.80;99.90;;;;;;5062426;28;20048;-80
2023/10/16 00:05:44;;;;;;;4.60;1.05;;;6.90;99.90;;;;;;5054089;28;20041;-80
2023/10/16 00:08:18;;;;;;;6.35;1.20;;;6.90;99.90;;;;;;5038845;28;20127;-80
2023/10/16 00:10:58;;;;;;;5.28;1.33;;;6.90;99.90;;;;;;5069486;28;20080;-80
2023/10/16 00:13:28;;;;;;;4.60;1.25;;;6.90;99.90;;;;;;5065886;28;20063;-80
2023/10/16 00:15:57;;;;;;;6.65;1.60;;;6.90;99.90;;;;;;5066577;28;20041;-80
2023/10/16 00:18:24;;;;;;;2.25;0.90;;;6.90;99.90;;;;;;5065748;28;20128;-80
2023/10/16 00:20:52;;;;;;;3.33;0.95;;;6.90;99.90;;;;;;5066557;28;20549;-80
2023/10/16 00:23:24;;;;;;;3.17;0.95;;;6.90;99.90;;;;;;5064802;28;20033;-80
2023/10/16 00:25:52;;;;;;;3.97;0.90;;;6.90;99.90;;;;;;5060201;28;20103;-80
2023/10/16 00:28:21;;;;;;;3.70;0.80;;;6.80;99.90;;;;;;5036258;28;20053;-80
2023/10/16 00:30:49;;;;;;;3.05;0.77;;;6.80;99.90;;;;;;5050094;28;20045;-81
2023/10/16 00:33:16;;;;;;;3.53;0.68;;;6.70;99.90;;;;;;5051439;28;20049;-80
2023/10/16 00:35:45;;;;;;;7.35;0.82;;;6.80;99.90;;;;;;5037167;28;20056;-80
2023/10/16 00:38:13;;;;;;;5.53;1.00;;;6.80;99.90;;;;;;5068882;28;20534;-80
2023/10/16 00:41:17;;;;;;;1.58;0.60;;;6.80;99.90;;;;;;5059848;28;20049;-80
2023/10/16 00:43:43;;;;;;;5.57;0.90;;;7.40;99.90;;;;;;5049262;28;20046;-80
2023/10/16 00:46:21;;;;;;;5.05;0.80;;;7.00;99.90;;;;;;5045934;28;20567;-80
2023/10/16 00:48:48;;;;;;;1.95;0.60;;;7.00;99.90;;;;;;5058690;28;20087;-80
2023/10/16 00:51:16;;;;;;;3.55;0.75;;;7.00;99.90;;;;;;5048596;28;20041;-80
2023/10/16 00:53:45;;;;;;;4.75;0.90;;;7.00;99.90;;;;;;5038970;28;20045;-80
2023/10/16 00:56:14;;;;;;;4.15;0.70;;;7.00;99.90;;;;;;5038656;28;20067;-80
2023/10/16 00:58:47;;;;;;;2.10;0.70;;;7.00;99.90;;;;;;5051902;28;20045;-80
2023/10/16 01:01:13;;;;;;;4.55;1.00;;;7.00;99.90;;;;;;5068977;28;20071;-81
2023/10/16 01:03:42;;;;;;;4.22;1.10;;;7.30;99.90;;;;;;5068788;28;20044;-80
2023/10/16 01:06:16;;;;;;;3.90;0.70;;;7.00;99.90;;;;;;5060051;28;20045;-81
2023/10/16 01:08:49;;;;;;;7.47;0.98;;;7.00;99.90;;;;;;5040043;28;20041;-80
2023/10/16 01:11:19;;;;;;;5.07;1.10;;;7.00;99.90;;;;;;5052875;28;20079;-80
2023/10/16 01:13:47;;;;;;;4.05;0.80;;;7.00;99.90;;;;;;5060487;28;20505;-80
2023/10/16 01:16:16;;;;;;;3.78;1.00;;;7.00;99.90;;;;;;5061951;28;20391;-81
2023/10/16 01:18:44;;;;;;;6.10;1.13;;;7.00;99.90;;;;;;5042475;28;20061;-80
2023/10/16 01:21:14;;;;;;;6.80;1.30;;;7.10;99.90;;;;;;5044541;28;20103;-80
2023/10/16 01:23:44;;;;;;;5.70;1.27;;;7.10;99.90;;;;;;5058663;28;20048;-80
2023/10/16 01:26:15;;;;;;;5.93;1.20;;;7.10;99.90;;;;;;5071787;28;20052;-80
2023/10/16 01:28:42;;;;;;;4.82;1.00;;;7.10;99.90;;;;;;5042678;28;20552;-80
2023/10/16 01:31:08;;;;;;;6.35;1.35;;;7.10;99.90;;;;;;5072111;28;20077;-81
2023/10/16 01:33:35;;;;;;;2.70;0.90;;;7.10;99.90;;;;;;5048563;28;20084;-80
2023/10/16 01:36:07;;;;;;;8.00;1.02;;;7.10;99.90;;;;;;5042675;28;20472;-80
2023/10/16 01:38:34;;;;;;;8.60;0.90;;;7.10;99.90;;;;;;5051056;28;20038;-80
2023/10/16 01:43:30;;;;;;;4.65;1.02;;;7.80;99.90;;;;;;5068691;28;20105;-80
2023/10/16 01:46:10;;;;;;;5.07;1.17;;;7.20;99.90;;;;;;5057206;28;20069;-80
2023/10/16 01:48:41;;;;;;;3.45;0.80;;;7.20;99.90;;;;;;5057428;28;20041;-80
2023/10/16 01:51:15;;;;;;;4.20;0.70;;;7.50;99.90;;;;;;5052053;28;20084;-80
2023/10/16 01:53:43;;;;;;;4.75;0.85;;;7.20;99.90;;;;;;5041501;28;20100;-80
2023/10/16 01:56:12;;;;;;;4.47;0.75;;;7.60;99.90;;;;;;5048437;28;20052;-80
2023/10/16 01:58:52;;;;;;;1.70;0.70;;;7.50;99.90;;;;;;5060641;28;20057;-80
2023/10/16 02:01:20;;;;;;;5.57;0.90;;;7.30;99.90;;;;;;5043327;28;20041;-80
2023/10/16 02:03:50;;;;;;;2.50;0.70;;;7.30;99.90;;;;;;5071467;28;20044;-80
2023/10/16 02:06:18;;;;;;;4.85;0.70;;;7.30;99.90;;;;;;5048514;28;20092;-79
2023/10/16 02:08:46;;;;;;;2.65;0.90;;;7.30;99.90;;;;;;5068050;28;20045;-81
2023/10/16 02:11:13;;;;;;;6.00;0.98;;;7.30;99.90;;;;;;5060387;28;20049;-81
2023/10/16 02:13:41;;;;;;;3.30;0.80;;;7.30;99.90;;;;;;5051305;28;20045;-81
2023/10/16 02:16:17;;;;;;;5.68;1.10;;;7.40;99.90;;;;;;5064452;28;20096;-81
2023/10/16 02:18:47;;;;;;;5.10;1.00;;;7.30;99.90;;;;;;5032354;28;20041;-81
2023/10/16 02:21:15;;;;;;;2.67;1.05;;;7.30;99.90;;;;;;5051657;28;20083;-80
2023/10/16 02:23:43;;;;;;;3.10;1.08;;;7.20;99.90;;;;;;5051386;28;20080;-80
2023/10/16 02:26:10;;;;;;;5.53;1.20;;;7.60;99.90;;;;;;5062449;28;20034;-81
2023/10/16 02:28:40;;;;;;;2.92;1.05;;;7.20;99.90;;;;;;5065080;28;20144;-80
2023/10/16 02:31:10;;;;;;;6.22;0.88;;;7.10;99.90;;;;;;5061162;28;20481;-80
2023/10/16 02:33:38;;;;;;;5.38;1.00;;;7.10;99.90;;;;;;5040569;28;20073;-81
2023/10/16 02:36:05;;;;;;;3.63;0.88;;;7.10;99.90;;;;;;5053818;28;20056;-80
2023/10/16 02:38:32;;;;;;;6.05;1.10;;;7.10;99.90;;;;;;5067165;28;20407;-79
2023/10/16 02:41:03;;;;;;;5.05;1.10;;;7.10;99.90;;;;;;5053213;28;20038;-81
2023/10/16 02:43:31;;;;;;;3.47;0.90;;;7.20;99.90;;;;;;5051030;28;20079;-80
2023/10/16 02:46:01;;;;;;;5.85;0.95;;;7.40;99.90;;;;;;5069214;28;20045;-79
2023/10/16 02:48:28;;;;;;;7.55;1.23;;;7.20;99.90;;;;;;5067508;28;20048;-80
2023/10/16 02:50:56;;;;;;;4.47;0.90;;;7.20;99.90;;;;;;5052318;28;20869;-80
2023/10/16 02:53:28;;;;;;;8.15;1.00;;;7.10;99.90;;;;;;5050378;28;20052;-80
2023/10/16 02:56:05;;;;;;;5.72;0.90;;;7.10;99.90;;;;;;5062400;28;20052;-80
2023/10/16 02:58:32;;;;;;;2.03;0.80;;;7.10;99.90;;;;;;5064345;28;20128;-81
2023/10/16 03:00:59;;;;;;;4.45;1.20;;;7.10;99.90;;;;;;5056126;28;20048;-80
2023/10/16 03:03:27;;;;;;;3.20;1.02;;;7.10;99.90;;;;;;5050979;28;20042;-80
2023/10/16 03:05:55;;;;;;;2.72;1.10;;;7.00;99.90;;;;;;5059110;28;20046;-81
2023/10/16 03:08:27;;;;;;;4.50;0.93;;;7.00;99.90;;;;;;5046435;28;20053;-80
2023/10/16 03:11:04;;;;;;;7.63;1.20;;;7.10;99.90;;;;;;5060693;28;20049;-81
2023/10/16 03:13:35;;;;;;;4.70;1.10;;;6.90;99.90;;;;;;5037770;28;20049;-80
2023/10/16 03:16:15;;;;;;;7.47;1.33;;;6.90;99.90;;;;;;5043563;28;20045;-81
2023/10/16 03:18:43;;;;;;;7.03;1.20;;;7.00;99.90;;;;;;5049684;28;20037;-80
2023/10/16 03:23:47;;;;;;;3.80;1.00;;;6.80;99.90;;;;;;5061775;28;20045;-80
2023/10/16 03:26:42;;;;;;;3.90;0.88;;;6.80;99.90;;;;;;5053267;28;20037;-80
2023/10/16 03:29:02;;;;;;;2.88;0.80;;;6.90;99.90;;;;;;5069161;28;20625;-80
2023/10/16 03:31:30;;;;;;;2.63;0.90;;;6.70;99.90;;;;;;5049779;28;20116;-80
2023/10/16 03:33:57;;;;;;;3.75;0.90;;;6.70;99.90;;;;;;5048698;28;20038;-81
2023/10/16 03:36:23;;;;;;;3.22;0.95;;;6.70;99.90;;;;;;5060433;28;20124;-81
2023/10/16 03:38:53;;;;;;;3.88;1.10;;;6.80;99.90;;;;;;5050884;28;20450;-81
2023/10/16 03:41:28;;;;;;;2.85;1.00;;;6.80;99.90;;;;;;5036820;28;20084;-81
2023/10/16 03:43:58;;;;;;;3.25;1.10;;;6.80;99.90;;;;;;5051332;28;20076;-81
2023/10/16 03:46:26;;;;;;;5.05;1.10;;;6.90;99.90;;;;;;5062857;28;20427;-81
2023/10/16 03:48:54;;;;;;;3.92;0.90;;;6.90;99.90;;;;;;5038733;28;20042;-80
2023/10/16 03:51:21;;;;;;;2.47;1.13;;;6.90;99.90;;;;;;5034848;28;20037;-80
2023/10/16 03:53:52;;;;;;;3.45;1.00;;;7.00;99.90;;;;;;5050213;28;20088;-79
2023/10/16 03:56:20;;;;;;;7.03;0.98;;;7.00;99.90;;;;;;5052357;28;20116;-80
2023/10/16 03:58:47;;;;;;;3.30;0.73;;;7.00;99.90;;;;;;5065702;28;20053;-80
2023/10/16 04:01:21;;;;;;;6.13;0.80;;;7.00;99.90;;;;;;5036098;28;20099;-80
2023/10/16 04:03:50;;;;;;;2.15;0.93;;;7.30;99.90;;;;;;5053123;28;20574;-80
2023/10/16 04:06:20;;;;;;;3.65;0.80;;;7.00;99.90;;;;;;5078910;28;20553;-79
2023/10/16 04:08:48;;;;;;;3.40;1.00;;;6.90;99.90;;;;;;5049701;28;20037;-80
2023/10/16 04:11:19;;;;;;;3.45;0.80;;;6.90;99.90;;;;;;5049434;28;20041;-80
2023/10/16 04:13:49;;;;;;;2.22;0.90;;;6.90;99.90;;;;;;5049385;28;20053;-79
2023/10/16 04:16:42;;;;;;;4.57;1.05;;;6.90;99.90;;;;;;5065874;28;20052;-80
2023/10/16 04:21:54;;;;;;;4.25;0.82;;;6.90;99.90;;;;;;5065668;28;20565;-80
2023/10/16 04:26:57;;;;;;;5.47;1.05;;;6.90;99.90;;;;;;5069285;28;20045;-80
2023/10/16 04:29:33;;;;;;;4.00;0.80;;;6.90;99.90;;;;;;5048936;28;20045;-80
2023/10/16 04:34:33;;;;;;;1.85;0.77;;;6.90;99.90;;;;;;5059514;28;20147;-81
2023/10/16 04:50:37;;;;;;;3.50;0.90;;;7.00;99.90;;;;;;5068775;28;20051;-80
2023/10/16 04:53:13;;;;;;;3.92;1.00;;;7.00;99.90;;;;;;5068842;28;20036;-81
2023/10/16 05:03:35;;;;;;;7.28;1.15;;;7.00;99.90;;;;;;5061301;28;20109;-80
2023/10/16 05:06:14;;;;;;;3.00;0.93;;;7.00;99.90;;;;;;5043057;28;20046;-80
2023/10/16 05:14:22;;;;;;;4.47;0.85;;;7.00;99.90;;;;;;5010051;28;20076;-80
2023/10/16 06:14:45;;;;;;;5.00;1.10;;;7.50;99.90;;;;;;5064898;28;20042;-81
2023/10/16 06:17:15;;;;;;;4.95;1.17;;;7.60;99.90;;;;;;5044155;28;20094;-80
2023/10/16 06:19:42;;;;;;;6.93;1.50;;;7.60;99.90;;;;;;5037790;28;20036;-80
2023/10/16 06:22:09;;;;;;;7.25;1.20;;;7.60;99.90;;;;;;5043277;28;20037;-81
2023/10/16 06:24:36;;;;;;;5.20;1.27;;;7.60;99.90;;;;;;5059620;28;20412;-81
2023/10/16 06:27:11;;;;;;;4.07;1.23;;;7.60;99.90;;;;;;5056534;28;20048;-80
2023/10/16 06:29:51;;;;;;;4.20;1.42;;;7.70;99.90;;;;;;5058191;28;20489;-81
2023/10/16 06:32:21;;;;;;;4.97;1.10;;;7.70;99.90;;;;;;5038790;28;20483;-80
2023/10/16 06:34:57;;;;;;;7.25;1.40;;;7.70;99.90;;;;;;5044719;28;20045;-80
2023/10/16 06:37:24;;;;;;;4.85;1.10;;;7.70;99.90;;;;;;5032192;28;20038;-81
2023/10/16 06:39:58;;;;;;;8.77;1.33;;;7.70;99.90;;;;;;5049873;28;20079;-81
2023/10/16 06:42:25;;;;;;;8.27;1.27;;;7.80;99.90;;;;;;5042860;28;20038;-81
2023/10/16 06:44:56;;;;;;;6.15;1.42;;;7.70;99.90;;;;;;5046555;28;20037;-81
2023/10/16 06:47:34;;;;;;;4.25;1.60;;;8.00;99.90;;;;;;5068071;28;20076;-81
2023/10/16 06:52:56;;;;;;;12.00;6.50;;;7.70;99.90;;;;;;5067329;28;20132;-80
2023/10/16 06:55:22;;;;;;;9.80;5.30;;;7.80;99.90;;;;;;5047447;28;20058;-81
2023/10/16 06:57:49;;;;;;;5.18;1.90;;;7.80;99.90;;;;;;5055843;28;20579;-80
2023/10/16 07:00:32;;;;;;;7.93;2.38;;;8.10;99.90;;;;;;5063673;28;20507;-80
2023/10/16 07:03:02;;;;;;;4.90;1.88;;;7.90;99.90;;;;;;5057412;28;20116;-80
2023/10/16 07:05:42;;;;;;;8.93;2.45;;;7.90;99.90;;;;;;5044443;28;20049;-81
2023/10/16 07:08:16;;;;;;;5.63;2.65;;;7.90;99.90;;;;;;5061832;28;20052;-79
2023/10/16 07:10:56;;;;;;;9.38;4.10;;;7.90;99.90;;;;;;5075592;28;20049;-82
2023/10/16 07:13:27;;;;;;;10.27;6.97;;;8.30;99.90;;;;;;5051411;28;20041;-82
2023/10/16 07:15:56;;;;;;;7.85;3.10;;;8.00;99.90;;;;;;5047457;28;20125;-82
2023/10/16 07:18:24;;;;;;;5.68;2.22;;;8.10;99.90;;;;;;5056025;28;20053;-82
2023/10/16 07:20:59;;;;;;;9.00;2.10;;;8.10;99.90;;;;;;5059829;28;20091;-81
2023/10/16 07:23:30;;;;;;;11.60;4.40;;;8.30;99.90;;;;;;5065736;28;20430;-81
2023/10/16 07:25:57;;;;;;;6.07;2.53;;;8.20;99.90;;;;;;5045036;28;20037;-82
2023/10/16 07:28:26;;;;;;;6.78;2.70;;;8.10;99.90;;;;;;5046676;28;20041;-81
2023/10/16 07:30:56;;;;;;;7.50;4.13;;;8.20;99.90;;;;;;5051234;28;20045;-82
2023/10/16 07:33:24;;;;;;;9.50;3.65;;;8.20;99.90;;;;;;5050196;28;20052;-80
2023/10/16 07:35:52;;;;;;;9.48;3.45;;;8.20;99.90;;;;;;5046072;28;20525;-84
2023/10/16 07:38:21;;;;;;;10.30;4.93;;;8.20;99.90;;;;;;5053636;28;20124;-84
2023/10/16 07:40:55;;;;;;;7.63;3.10;;;8.30;99.90;;;;;;5038893;28;20038;-83
2023/10/16 07:43:27;;;;;;;8.05;3.20;;;8.20;99.90;;;;;;5050411;28;20111;-84
2023/10/16 07:48:40;;;;;;;18.77;9.05;;;8.30;99.90;;;;;;5053961;28;20049;-83
2023/10/16 07:51:08;;;;;;;16.73;8.40;;;8.30;99.90;;;;;;5052613;28;20042;-84
2023/10/16 07:53:36;;;;;;;6.22;2.92;;;8.90;99.90;;;;;;5050127;28;20068;-83
2023/10/16 07:56:17;;;;;;;36.75;22.25;;;8.40;99.90;;;;;;5055924;28;20115;-85
2023/10/16 07:58:49;;;;;;;33.40;21.35;;;8.40;99.90;;;;;;5046376;28;20054;-84
2023/10/16 08:01:17;;;;;;;11.65;6.75;;;8.50;99.90;;;;;;5064931;28;20053;-84
2023/10/16 08:03:48;;;;;;;9.77;4.38;;;8.50;99.90;;;;;;5047739;28;20037;-84
2023/10/16 08:06:23;;;;;;;6.18;3.08;;;8.70;99.90;;;;;;5036494;28;20081;-82
2023/10/16 08:09:29;;;;;;;10.75;1.95;;;8.50;99.90;;;;;;5038927;28;20045;-85
2023/10/16 08:11:42;;;;;;;8.13;2.15;;;8.50;99.90;;;;;;5048200;28;20056;-82
2023/10/16 08:14:10;;;;;;;9.85;3.65;;;9.00;99.90;;;;;;5053651;28;20033;-83
2023/10/16 08:16:39;;;;;;;4.90;1.92;;;8.60;99.90;;;;;;5034171;28;20124;-82
2023/10/16 08:19:15;;;;;;;6.93;1.90;;;8.70;99.90;;;;;;5058458;28;20045;-82
2023/10/16 08:21:42;;;;;;;8.13;1.90;;;8.80;99.90;;;;;;5054592;28;20091;-85
2023/10/16 08:24:16;;;;;;;9.40;1.77;;;8.90;99.90;;;;;;5042791;28;20408;-83
2023/10/16 08:26:43;;;;;;;5.78;1.40;;;9.10;99.90;;;;;;5039304;28;20103;-84
2023/10/16 08:29:34;;;;;;;4.43;1.40;;;9.30;99.90;;;;;;5038193;28;20041;-85
2023/10/16 08:34:46;;;;;;;7.25;1.20;;;9.50;99.90;;;;;;5062392;28;20106;-85
2023/10/16 08:37:13;;;;;;;3.10;1.27;;;9.50;99.90;;;;;;5033572;28;20050;-84
2023/10/16 08:39:48;;;;;;;3.95;1.30;;;9.50;99.90;;;;;;5042520;28;20600;-85
2023/10/16 08:42:18;;;;;;;2.92;1.10;;;9.60;99.90;;;;;;5039555;28;20453;-84
2023/10/16 08:44:51;;;;;;;5.50;1.30;;;9.60;99.90;;;;;;5049619;28;20041;-84
2023/10/16 08:47:24;;;;;;;5.40;1.10;;;9.70;99.90;;;;;;5033463;28;20392;-84
2023/10/16 08:49:55;;;;;;;7.78;1.40;;;9.70;99.90;;;;;;5050975;28;20146;-83
2023/10/16 08:52:25;;;;;;;6.32;1.30;;;9.80;99.90;;;;;;5049296;28;20050;-84
2023/10/16 08:57:20;;;;;;;5.93;1.25;;;10.20;99.90;;;;;;5059392;28;20042;-85
2023/10/16 08:59:51;;;;;;;8.63;1.15;;;9.90;99.90;;;;;;5043978;28;20056;-85
2023/10/16 09:02:20;;;;;;;8.30;1.08;;;10.00;99.90;;;;;;5039978;28;20088;-84
2023/10/16 09:04:49;;;;;;;2.60;1.00;;;10.00;99.90;;;;;;5042442;28;20045;-85
2023/10/16 09:07:19;;;;;;;10.07;1.27;;;10.60;99.90;;;;;;5038674;28;20046;-84
2023/10/16 09:09:49;;;;;;;3.33;0.85;;;10.40;99.90;;;;;;5042655;28;20046;-84
2023/10/16 09:12:28;;;;;;;5.55;0.95;;;10.40;99.90;;;;;;5056407;28;20056;-84
2023/10/16 09:15:07;;;;;;;3.25;0.70;;;10.50;99.90;;;;;;5066120;28;20052;-84
2023/10/16 09:17:35;;;;;;;5.50;0.90;;;10.50;99.90;;;;;;5031140;28;20045;-84
2023/10/16 09:20:13;;;;;;;4.18;0.82;;;10.60;99.90;;;;;;5049104;28;20044;-84
2023/10/16 09:22:49;;;;;;;3.70;0.90;;;10.60;99.90;;;;;;5044708;28;20041;-85
2023/10/16 09:25:22;;;;;;;2.80;0.77;;;10.70;99.90;;;;;;5053404;28;20038;-82
2023/10/16 09:27:49;;;;;;;3.42;0.90;;;10.70;99.90;;;;;;5048881;28;20096;-84
2023/10/16 09:30:17;;;;;;;3.08;1.00;;;10.70;99.90;;;;;;5026421;28;20439;-85
2023/10/16 09:32:44;;;;;;;3.92;1.55;;;10.60;99.90;;;;;;5047991;28;20041;-86
2023/10/16 09:35:12;;;;;;;6.88;1.38;;;10.60;99.90;;;;;;5052818;28;20076;-84
2023/10/16 09:37:47;;;;;;;3.35;0.90;;;10.70;99.90;;;;;;5049325;28;20037;-84
2023/10/16 09:40:35;;;;;;;6.07;1.38;;;10.60;99.90;;;;;;5032836;28;20045;-85
2023/10/16 09:43:13;;;;;;;4.70;1.00;;;10.80;99.90;;;;;;5056968;28;20041;-85
2023/10/16 09:45:41;;;;;;;6.40;0.85;;;10.90;99.90;;;;;;5056971;28;20042;-83
2023/10/16 09:48:08;;;;;;;3.75;0.70;;;11.00;99.90;;;;;;5046146;28;20107;-85
2023/10/16 09:50:38;;;;;;;4.40;1.08;;;11.00;99.90;;;;;;5059794;28;20056;-85
2023/10/16 09:53:08;;;;;;;3.13;0.80;;;11.00;99.90;;;;;;5035997;28;20050;-84
2023/10/16 09:55:38;;;;;;;3.95;0.70;;;11.30;99.90;;;;;;5056684;28;20499;-85
2023/10/16 09:58:09;;;;;;;4.65;0.70;;;11.20;99.90;;;;;;5039319;28;20128;-84
2023/10/16 10:00:39;;;;;;;2.90;0.65;;;11.20;99.90;;;;;;5052547;28;20453;-85
2023/10/16 10:03:08;;;;;;;3.72;0.60;;;11.20;99.90;;;;;;5041642;28;20057;-85
2023/10/16 10:06:20;;;;;;;3.22;1.00;;;11.40;99.90;;;;;;5052596;28;20116;-85
2023/10/16 10:11:38;;;;;;;3.25;0.70;;;11.50;99.90;;;;;;5035259;28;20040;-84
2023/10/16 10:14:39;;;;;;;5.78;0.80;;;11.40;99.90;;;;;;5055508;28;20049;-84
2023/10/16 10:17:09;;;;;;;8.93;0.90;;;11.30;99.90;;;;;;5079399;28;20053;-83
2023/10/16 10:19:41;;;;;;;5.95;1.02;;;11.40;99.90;;;;;;5048232;28;20491;-84
2023/10/16 10:22:18;;;;;;;3.53;0.80;;;11.40;99.90;;;;;;5048905;28;20072;-85
2023/10/16 10:24:48;;;;;;;5.30;1.05;;;11.50;99.90;;;;;;5032461;28;20510;-84
2023/10/16 10:27:16;;;;;;;4.15;1.02;;;11.60;99.90;;;;;;5083914;28;20050;-84
2023/10/16 10:29:49;;;;;;;3.33;0.80;;;11.60;99.90;;;;;;5034537;28;20095;-82
2023/10/16 10:32:16;;;;;;;3.70;0.90;;;11.60;99.90;;;;;;5047620;28;20037;-82
2023/10/16 10:34:44;;;;;;;4.38;0.90;;;11.60;99.90;;;;;;5059622;28;20114;-82
2023/10/16 10:37:45;;;;;;;5.50;0.80;;;11.80;99.90;;;;;;5034573;28;20040;-83
2023/10/16 10:40:15;;;;;;;3.83;0.85;;;11.90;99.90;;;;;;5041731;28;20041;-83
2023/10/16 10:42:45;;;;;;;1.95;0.70;;;12.10;99.90;;;;;;5050658;28;20099;-83
2023/10/16 10:45:21;;;;;;;6.20;0.90;;;12.30;99.90;;;;;;5042764;28;20048;-83
2023/10/16 10:47:48;;;;;;;5.10;0.80;;;12.80;99.90;;;;;;5048461;28;20056;-82
2023/10/16 10:50:15;;;;;;;4.10;0.80;;;12.40;99.90;;;;;;5040462;28;20037;-83
2023/10/16 10:52:46;;;;;;;3.63;0.60;;;12.40;99.90;;;;;;5048796;28;20449;-84
2023/10/16 10:55:21;;;;;;;4.70;0.88;;;12.30;99.90;;;;;;5046876;28;20058;-84
2023/10/16 10:58:02;;;;;;;3.83;0.75;;;12.20;99.90;;;;;;5046348;28;20034;-83
2023/10/16 11:05:30;;;;;;;2.50;0.60;;;11.70;99.90;;;;;;5071034;28;20088;-84
2023/10/16 11:10:42;;;;;;;4.07;0.80;;;11.40;99.90;;;;;;5066297;28;20042;-84
2023/10/16 11:13:11;;;;;;;2.05;0.60;;;11.20;99.90;;;;;;5042934;28;20040;-84
2023/10/16 11:15:54;;;;;;;3.25;0.90;;;11.20;99.90;;;;;;5064076;28;20524;-84
2023/10/16 11:18:22;;;;;;;7.18;0.77;;;11.10;99.90;;;;;;5035242;28;20041;-86
2023/10/16 11:20:54;;;;;;;3.85;0.93;;;11.10;99.90;;;;;;5037200;28;20051;-85
2023/10/16 11:23:21;;;;;;;2.50;0.80;;;11.10;99.90;;;;;;5048809;28;20136;-85
2023/10/16 11:25:52;;;;;;;4.78;1.33;;;11.10;99.90;;;;;;5042856;28;20040;-86
2023/10/16 11:28:21;;;;;;;2.67;0.68;;;11.20;99.90;;;;;;5063275;28;20443;-86
2023/10/16 11:30:53;;;;;;;4.47;1.00;;;11.20;99.90;;;;;;5044591;28;20041;-85
2023/10/16 11:34:00;;;;;;;2.83;0.88;;;11.20;99.90;;;;;;5053123;28;20132;-85
2023/10/16 11:36:31;;;;;;;4.43;0.93;;;11.20;99.90;;;;;;5037868;28;20491;-84
2023/10/16 11:38:59;;;;;;;3.13;0.60;;;11.30;99.90;;;;;;5049501;28;20449;-85
2023/10/16 11:41:26;;;;;;;6.05;0.80;;;11.40;99.90;;;;;;5045194;28;20095;-84
2023/10/16 11:43:54;;;;;;;3.35;0.60;;;11.50;99.90;;;;;;5042198;28;20028;-84
2023/10/16 11:46:44;;;;;;;3.45;0.70;;;11.50;99.90;;;;;;5055869;28;20033;-85
2023/10/16 11:51:46;;;;;;;3.05;0.60;;;11.90;99.90;;;;;;5064634;28;20107;-84
2023/10/16 11:54:25;;;;;;;5.20;0.70;;;11.80;99.90;;;;;;5049344;28;20103;-85
2023/10/16 11:56:55;;;;;;;5.00;0.75;;;11.70;99.90;;;;;;5035973;28;20132;-85
2023/10/16 11:59:24;;;;;;;4.55;0.80;;;11.90;99.90;;;;;;5037435;28;20579;-84
2023/10/16 12:01:59;;;;;;;5.32;1.00;;;12.00;99.90;;;;;;5034488;28;20045;-86
2023/10/16 12:04:26;;;;;;;2.10;0.80;;;11.90;99.90;;;;;;5045026;28;20037;-86
2023/10/16 12:06:53;;;;;;;4.07;1.08;;;11.80;99.90;;;;;;5066815;28;20041;-86
2023/10/16 12:09:20;;;;;;;3.35;0.90;;;12.00;99.90;;;;;;5058011;28;20049;-86
2023/10/16 12:11:51;;;;;;;4.25;0.63;;;12.00;99.90;;;;;;5033290;28;20702;-85
2023/10/16 12:14:18;;;;;;;2.95;0.77;;;12.10;99.90;;;;;;5033843;28;20087;-87
2023/10/16 12:16:46;;;;;;;3.88;0.75;;;12.10;99.90;;;;;;5053266;28;20406;-86
2023/10/16 12:19:14;;;;;;;3.15;0.65;;;12.20;99.90;;;;;;5040292;28;20045;-86
2023/10/16 12:21:42;;;;;;;6.72;1.00;;;12.20;99.90;;;;;;5058034;28;20456;-87
2023/10/16 12:24:12;;;;;;;7.10;1.23;;;12.30;99.90;;;;;;5068735;28;20112;-86
2023/10/16 12:26:40;;;;;;;8.77;1.05;;;12.40;99.90;;;;;;5052970;28;20079;-86
2023/10/16 12:29:08;;;;;;;4.45;0.80;;;12.30;99.90;;;;;;5033316;28;20056;-86
2023/10/16 12:31:35;;;;;;;5.90;1.40;;;12.30;99.90;;;;;;5046041;28;20388;-86
2023/10/16 12:34:03;;;;;;;4.47;0.88;;;12.40;99.90;;;;;;5052925;28;20490;-86
2023/10/16 12:36:31;;;;;;;3.67;0.90;;;12.80;99.90;;;;;;5068846;28;20045;-86
2023/10/16 12:38:59;;;;;;;7.75;1.05;;;12.60;99.90;;;;;;5068774;28;20048;-87
2023/10/16 12:41:26;;;;;;;9.05;1.00;;;12.40;99.90;;;;;;5069246;28;20517;-86
2023/10/16 12:43:53;;;;;;;6.95;1.10;;;12.40;99.90;;;;;;5041643;28;20090;-86
2023/10/16 12:46:19;;;;;;;5.18;0.98;;;12.40;99.90;;;;;;5062464;28;20037;-87
2023/10/16 12:48:46;;;;;;;4.03;1.00;;;12.40;99.90;;;;;;5045479;28;20053;-86
2023/10/16 12:51:13;;;;;;;6.22;0.90;;;12.10;99.90;;;;;;5039784;28;20052;-86
2023/10/16 12:53:39;;;;;;;4.65;0.93;;;12.10;99.90;;;;;;5053167;28;20049;-87
2023/10/16 12:56:06;;;;;;;2.42;0.77;;;12.00;99.90;;;;;;5046142;28;20045;-87
2023/10/16 12:58:34;;;;;;;9.70;1.02;;;12.00;99.90;;;;;;5062754;28;20044;-86
2023/10/16 13:01:10;;;;;;;2.58;0.88;;;12.00;99.90;;;;;;5075340;28;20120;-86
2023/10/16 13:03:37;;;;;;;4.45;0.88;;;11.90;99.90;;;;;;5059719;28;20033;-86
2023/10/16 13:06:05;;;;;;;2.67;0.80;;;11.90;99.90;;;;;;5067959;28;20052;-84
2023/10/16 13:08:35;;;;;;;5.22;1.05;;;11.90;99.90;;;;;;5044658;28;20407;-85
2023/10/16 13:11:02;;;;;;;6.43;0.75;;;11.90;99.90;;;;;;5053135;28;20392;-85
2023/10/16 13:13:28;;;;;;;4.18;0.85;;;11.80;99.90;;;;;;5044295;28;20046;-86
2023/10/16 13:15:57;;;;;;;2.03;0.60;;;11.90;99.90;;;;;;5044835;28;20036;-85
2023/10/16 13:18:27;;;;;;;5.07;0.70;;;11.80;99.90;;;;;;5059684;28;20041;-85
2023/10/16 13:20:57;;;;;;;4.97;0.77;;;11.90;99.90;;;;;;5065313;28;20037;-85
2023/10/16 13:23:27;;;;;;;4.57;0.60;;;11.90;99.90;;;;;;5072082;28;20041;-84
2023/10/16 13:25:56;;;;;;;2.25;0.70;;;11.90;99.90;;;;;;5058912;28;20036;-85
2023/10/16 13:28:24;;;;;;;6.78;0.80;;;12.00;99.90;;;;;;5051365;28;20038;-85
2023/10/16 13:30:52;;;;;;;5.05;0.75;;;12.00;99.90;;;;;;5083562;28;20044;-84
2023/10/16 13:33:19;;;;;;;3.22;0.70;;;12.10;99.90;;;;;;5059461;28;20037;-85
2023/10/16 13:35:46;;;;;;;2.20;0.70;;;12.10;99.90;;;;;;5075877;28;20182;-86
2023/10/16 13:38:14;;;;;;;3.83;0.70;;;12.10;99.90;;;;;;5058969;28;20098;-85
2023/10/16 13:40:43;;;;;;;3.10;0.70;;;12.10;99.90;;;;;;5059491;28;20098;-85
2023/10/16 13:43:10;;;;;;;5.32;0.90;;;12.10;99.90;;;;;;5059173;28;20049;-86
2023/10/16 13:45:39;;;;;;;5.85;0.95;;;12.50;99.90;;;;;;5054799;28;20041;-86
2023/10/16 13:48:09;;;;;;;2.55;0.77;;;12.20;99.90;;;;;;5050525;28;20045;-86
2023/10/16 13:50:36;;;;;;;5.95;1.02;;;12.20;99.90;;;;;;5042963;28;20071;-85
2023/10/16 13:53:04;;;;;;;5.15;0.90;;;12.10;99.90;;;;;;5051483;28;20036;-85
2023/10/16 13:55:31;;;;;;;8.32;1.00;;;12.20;99.90;;;;;;5045538;28;20048;-84
2023/10/16 13:57:58;;;;;;;3.08;0.55;;;12.20;99.90;;;;;;5075355;28;20045;-83
2023/10/16 14:00:37;;;;;;;5.78;1.00;;;12.60;99.90;;;;;;5056350;28;20059;-84
2023/10/16 14:03:09;;;;;;;5.28;0.80;;;12.10;99.90;;;;;;5069805;28;20033;-85
2023/10/16 14:05:41;;;;;;;5.32;0.95;;;12.20;99.90;;;;;;5058818;28;20045;-85
2023/10/16 14:08:14;;;;;;;3.53;1.30;;;12.20;99.90;;;;;;5053354;28;20045;-84
2023/10/16 14:11:15;;;;;;;6.13;1.45;;;12.20;99.90;;;;;;5048871;28;20045;-85
2023/10/16 14:13:37;;;;;;;8.50;1.23;;;12.10;99.90;;;;;;5068271;28;20124;-82
2023/10/16 14:16:18;;;;;;;7.20;1.20;;;12.10;99.90;;;;;;5054932;28;20037;-82
2023/10/16 14:18:44;;;;;;;6.20;0.90;;;12.10;99.90;;;;;;5065505;28;20079;-82
2023/10/16 14:21:12;;;;;;;7.35;1.02;;;12.10;99.90;;;;;;5071579;28;20127;-82
2023/10/16 14:23:39;;;;;;;4.40;0.75;;;12.30;99.90;;;;;;5056448;28;20048;-82
2023/10/16 14:26:21;;;;;;;2.95;0.82;;;12.00;99.90;;;;;;5055965;28;20034;-81
2023/10/16 14:28:52;;;;;;;3.60;0.70;;;12.00;99.90;;;;;;5035122;28;20045;-82
2023/10/16 14:31:21;;;;;;;6.45;0.90;;;12.00;99.90;;;;;;5053859;28;20124;-82
2023/10/16 14:33:49;;;;;;;3.42;0.80;;;12.00;99.90;;;;;;5070720;28;20052;-84
2023/10/16 14:36:16;;;;;;;4.75;0.95;;;11.90;99.90;;;;;;5050706;28;20034;-84
2023/10/16 14:38:43;;;;;;;3.97;1.10;;;11.70;99.90;;;;;;5018400;28;20128;-84
2023/10/16 14:41:15;;;;;;;7.70;1.30;;;11.60;99.90;;;;;;5057732;28;20041;-86
2023/10/16 14:43:45;;;;;;;5.88;1.20;;;11.50;99.90;;;;;;5047919;28;20041;-84
2023/10/16 14:46:12;;;;;;;3.38;0.90;;;11.40;99.90;;;;;;5051833;28;20041;-84
2023/10/16 14:48:42;;;;;;;4.15;1.05;;;11.40;99.90;;;;;;5048721;28;20405;-84
2023/10/16 14:51:15;;;;;;;3.88;1.00;;;11.20;99.90;;;;;;5070843;28;20037;-83
2023/10/16 14:53:43;;;;;;;4.13;1.23;;;11.10;99.90;;;;;;5062146;28;20041;-85
2023/10/16 14:56:11;;;;;;;4.70;1.20;;;11.00;99.90;;;;;;5051155;28;20059;-84
2023/10/16 14:58:38;;;;;;;5.35;1.35;;;11.00;99.90;;;;;;5046638;28;20056;-84
2023/10/16 15:01:17;;;;;;;6.65;1.23;;;11.00;99.90;;;;;;5046130;28;20052;-85
2023/10/16 15:03:48;;;;;;;6.63;1.90;;;10.90;99.90;;;;;;5048020;28;20537;-84
2023/10/16 15:06:15;;;;;;;5.40;1.83;;;10.90;99.90;;;;;;5034457;28;20487;-84
2023/10/16 15:08:46;;;;;;;7.25;2.55;;;10.90;99.90;;;;;;5054010;28;20041;-84
2023/10/16 15:11:13;;;;;;;6.78;2.10;;;10.90;99.90;;;;;;5039389;28;20044;-82
2023/10/16 15:13:42;;;;;;;4.88;1.40;;;11.00;99.90;;;;;;5051218;28;20131;-84